< < Back
Terminal Aerodrome Forecast


Current Version              Previous Versions:   1  2  3  4  5  6  7  8  9  

Terminal Aerodrome Forecast

650
FTUS42 KGSP 280100 AAA
TAFCLT
TAF AMD
KCLT 280126Z 2801/2824 23010KT P6SM VCSH BKN250
      TEMPO 2801/2805 6SM TSRA BR OVC040CB
     FM280800 24006KT 6SM TSRA BR BKN040CB
     FM281100 28009KT P6SM SCT250
     FM282000 30013G18KT P6SM FEW250=

Latest METAR

837
SAUS70 KWBC 280600 RRA
MTRCLT
METAR KCLT 280552Z 33009KT 10SM OVC200 23/21 A2989 RMK AO2 SLP109 LTG
DSNT N 60006 T02280206 10294 20222 55004


USA.gov is the U.S. government's official web portal to all federal, state and local government web resources and services.